createdAt,value
2022-09-30T00:00:56.314Z,5.25
2022-09-30T00:03:24.334Z,4.93
2022-09-30T00:06:08.432Z,5.50
2022-09-30T00:08:45.799Z,5.32
2022-09-30T00:11:40.812Z,5.47
2022-09-30T00:14:12.822Z,5.90
2022-09-30T00:16:39.751Z,5.18
2022-09-30T00:19:06.656Z,5.20
2022-09-30T00:21:36.517Z,5.07
2022-09-30T00:24:08.747Z,5.40
2022-09-30T00:26:36.289Z,5.95
2022-09-30T00:29:04.417Z,5.60
2022-09-30T00:31:37.133Z,5.47
2022-09-30T00:34:07.557Z,5.40
2022-09-30T00:36:41.421Z,5.15
2022-09-30T00:39:10.252Z,5.65
2022-09-30T00:41:37.702Z,6.35
2022-09-30T00:44:43.319Z,5.55
2022-09-30T00:47:33.692Z,5.43
2022-09-30T00:50:20.264Z,5.75
2022-09-30T00:52:55.634Z,5.65
2022-09-30T00:55:39.746Z,5.60
2022-09-30T00:58:09.866Z,5.80
2022-09-30T01:00:37.248Z,5.35
2022-09-30T01:04:44.594Z,5.65
2022-09-30T01:06:37.850Z,5.63
2022-09-30T01:09:02.925Z,5.65
2022-09-30T01:11:36.103Z,5.40
2022-09-30T01:14:14.923Z,5.90
2022-09-30T01:16:44.823Z,5.82
2022-09-30T01:19:43.686Z,5.90
2022-09-30T01:22:49.508Z,6.07
2022-09-30T01:26:09.534Z,5.95
2022-09-30T01:28:54.797Z,5.78
2022-09-30T01:31:23.779Z,5.50
2022-09-30T01:34:25.539Z,5.88
2022-09-30T01:37:48.837Z,5.53
2022-09-30T01:40:36.566Z,5.10
2022-09-30T01:43:11.218Z,5.18
2022-09-30T01:45:45.952Z,4.95
2022-09-30T01:48:29.928Z,5.60
2022-09-30T01:51:06.375Z,5.57
2022-09-30T01:53:59.050Z,5.35
2022-09-30T01:56:34.944Z,5.53
2022-09-30T01:59:15.914Z,5.53
2022-09-30T02:01:54.181Z,5.90
2022-09-30T02:04:28.443Z,5.47
2022-09-30T02:07:00.899Z,5.80
2022-09-30T02:09:39.171Z,5.47
2022-09-30T02:12:11.431Z,5.53
2022-09-30T02:14:45.999Z,5.53
2022-09-30T02:17:43.336Z,5.38
2022-09-30T02:20:18.433Z,5.75
2022-09-30T02:22:50.694Z,5.32
2022-09-30T02:25:26.350Z,5.47
2022-09-30T02:30:23.636Z,5.35
2022-09-30T02:33:05.632Z,5.40
2022-09-30T02:36:07.053Z,5.35
2022-09-30T02:38:46.118Z,5.10
2022-09-30T02:41:31.114Z,5.85
2022-09-30T02:44:32.604Z,5.22
2022-09-30T02:50:45.776Z,5.50
2022-09-30T02:53:43.110Z,5.93
2022-09-30T02:56:15.557Z,5.40
2022-09-30T02:59:01.507Z,5.05
2022-09-30T03:01:47.304Z,5.88
2022-09-30T03:04:20.531Z,5.40
2022-09-30T03:07:43.200Z,6.00
2022-09-30T03:10:42.065Z,5.43
2022-09-30T03:13:20.689Z,5.82
2022-09-30T03:15:47.401Z,5.30
2022-09-30T03:18:39.053Z,5.53
2022-09-30T03:21:17.409Z,5.38
2022-09-30T03:24:02.252Z,6.03
2022-09-30T03:27:06.556Z,5.20
2022-09-30T03:29:43.865Z,5.68
2022-09-30T03:32:18.081Z,5.65
2022-09-30T03:34:55.496Z,5.65
2022-09-30T03:37:34.478Z,5.65
2022-09-30T03:40:25.402Z,5.15
2022-09-30T03:43:21.626Z,5.68
2022-09-30T03:46:45.410Z,5.82
2022-09-30T03:49:24.339Z,5.13
2022-09-30T03:51:52.968Z,5.68
2022-09-30T03:54:19.956Z,5.55
2022-09-30T03:56:50.607Z,5.55
2022-09-30T03:59:25.928Z,5.35
2022-09-30T04:01:53.999Z,5.22
2022-09-30T04:04:21.339Z,5.47
2022-09-30T04:06:48.333Z,5.68
2022-09-30T04:09:15.395Z,5.72
2022-09-30T04:11:49.022Z,5.63
2022-09-30T04:14:15.987Z,5.88
2022-09-30T04:16:50.605Z,5.65
2022-09-30T04:19:22.696Z,5.57
2022-09-30T04:21:57.888Z,6.32
2022-09-30T04:24:25.134Z,5.63
2022-09-30T04:27:04.604Z,5.70
2022-09-30T04:29:31.530Z,5.72
2022-09-30T04:32:23.530Z,5.80
2022-09-30T04:34:48.444Z,5.70
2022-09-30T04:37:15.763Z,6.05
2022-09-30T04:39:42.605Z,5.65
2022-09-30T04:42:35.379Z,6.20
2022-09-30T04:45:31.684Z,8.00
2022-09-30T04:48:01.043Z,7.47
2022-09-30T04:50:27.737Z,6.07
2022-09-30T04:52:57.256Z,6.13
2022-09-30T04:55:25.096Z,6.45
2022-09-30T04:57:51.835Z,6.50
2022-09-30T05:00:21.731Z,6.75
2022-09-30T05:02:48.853Z,6.28
2022-09-30T05:05:15.656Z,6.25
2022-09-30T05:07:42.384Z,6.28
2022-09-30T05:10:11.194Z,5.70
2022-09-30T05:12:40.369Z,6.03
2022-09-30T05:15:07.851Z,6.03
2022-09-30T05:17:34.871Z,6.70
2022-09-30T05:20:10.965Z,6.15
2022-09-30T05:22:38.338Z,6.45
2022-09-30T05:25:05.802Z,6.82
2022-09-30T05:27:32.622Z,6.43
2022-09-30T05:29:59.356Z,6.45
2022-09-30T05:32:26.548Z,6.18
2022-09-30T05:34:55.295Z,6.25
2022-09-30T05:37:22.303Z,5.90
2022-09-30T05:39:49.014Z,6.38
2022-09-30T05:42:15.844Z,6.43
2022-09-30T05:44:44.824Z,6.05
2022-09-30T05:47:11.804Z,6.65
2022-09-30T05:49:40.223Z,5.78
2022-09-30T05:52:07.901Z,6.18
2022-09-30T05:54:34.676Z,5.93
2022-09-30T05:57:01.538Z,6.10
2022-09-30T05:59:28.401Z,6.43
2022-09-30T06:01:55.609Z,5.60
2022-09-30T06:04:22.878Z,5.47
2022-09-30T06:06:49.877Z,6.05
2022-09-30T06:09:17.335Z,5.30
2022-09-30T06:11:44.427Z,5.90
2022-09-30T06:14:11.296Z,6.32
2022-09-30T06:16:38.269Z,6.50
2022-09-30T06:19:06.309Z,6.60
2022-09-30T06:21:33.113Z,6.10
2022-09-30T06:24:00.786Z,5.95
2022-09-30T06:26:27.858Z,6.07
2022-09-30T06:28:54.801Z,6.57
2022-09-30T06:31:21.579Z,6.88
2022-09-30T06:33:54.374Z,6.25
2022-09-30T06:36:23.335Z,6.72
2022-09-30T06:38:54.519Z,6.43
2022-09-30T06:41:26.192Z,6.63
2022-09-30T06:43:58.869Z,8.13
2022-09-30T06:46:31.063Z,8.65
2022-09-30T06:49:09.654Z,8.07
2022-09-30T06:51:42.587Z,8.05
2022-09-30T06:54:10.183Z,7.47
2022-09-30T06:56:37.112Z,9.68
2022-09-30T06:59:04.593Z,9.65
2022-09-30T07:01:31.495Z,11.25
2022-09-30T07:03:58.379Z,11.60
2022-09-30T07:06:29.244Z,11.30
2022-09-30T07:08:56.900Z,11.27
2022-09-30T07:11:24.816Z,12.75
2022-09-30T07:13:51.656Z,11.90
2022-09-30T07:16:21.364Z,11.32
2022-09-30T07:18:48.312Z,11.20
2022-09-30T07:21:22.963Z,11.43
2022-09-30T07:23:51.096Z,12.57
2022-09-30T07:26:19.926Z,12.65
2022-09-30T07:28:47.334Z,11.65
2022-09-30T07:31:34.737Z,13.18
2022-09-30T07:34:04.208Z,12.93
2022-09-30T07:36:34.451Z,12.65
2022-09-30T07:39:05.476Z,13.48
2022-09-30T07:41:33.185Z,13.98
2022-09-30T07:44:00.106Z,14.05
2022-09-30T07:46:31.808Z,13.85
2022-09-30T07:49:06.201Z,14.30
2022-09-30T07:51:38.611Z,14.23
2022-09-30T07:54:13.012Z,13.25
2022-09-30T07:59:33.899Z,16.55
2022-09-30T08:02:03.593Z,14.80
2022-09-30T08:04:51.109Z,15.30
2022-09-30T08:07:46.135Z,14.15
2022-09-30T08:10:34.306Z,13.85
2022-09-30T08:13:06.240Z,14.48
2022-09-30T08:15:33.289Z,14.02
2022-09-30T08:18:00.101Z,14.38
2022-09-30T08:20:27.269Z,13.40
2022-09-30T08:22:55.125Z,14.18
2022-09-30T08:25:23.085Z,14.25
2022-09-30T08:27:50.010Z,14.63
2022-09-30T08:30:17.475Z,14.48
2022-09-30T08:32:44.214Z,13.95
2022-09-30T08:35:10.957Z,13.80
2022-09-30T08:37:37.738Z,12.32
2022-09-30T08:40:05.087Z,13.27
2022-09-30T08:42:59.739Z,13.18
2022-09-30T08:45:54.338Z,13.15
2022-09-30T08:48:31.645Z,12.32
2022-09-30T08:51:14.667Z,13.32
2022-09-30T08:53:45.697Z,13.25
2022-09-30T08:56:24.012Z,13.48
2022-09-30T08:58:53.712Z,13.13
2022-09-30T09:01:33.895Z,13.00
2022-09-30T09:04:04.132Z,12.80
2022-09-30T09:06:45.327Z,10.95
2022-09-30T09:09:23.258Z,12.20
2022-09-30T09:12:08.843Z,11.88
2022-09-30T09:14:44.876Z,10.60
2022-09-30T09:17:35.518Z,10.52
2022-09-30T09:20:16.917Z,11.80
2022-09-30T09:22:48.899Z,11.32
2022-09-30T09:25:18.449Z,11.68
2022-09-30T09:27:56.037Z,11.40
2022-09-30T09:30:25.081Z,10.05
2022-09-30T09:32:58.191Z,10.93
2022-09-30T09:35:44.140Z,11.00
2022-09-30T09:38:45.757Z,10.23
2022-09-30T09:41:33.336Z,9.80
2022-09-30T09:44:26.599Z,10.80
2022-09-30T09:47:05.888Z,10.68
2022-09-30T09:49:35.929Z,9.85
2022-09-30T09:52:18.373Z,11.25
2022-09-30T09:54:52.501Z,9.60
2022-09-30T09:57:25.673Z,10.45
2022-09-30T10:00:20.809Z,10.07
2022-09-30T10:03:18.749Z,10.25
2022-09-30T10:05:59.686Z,9.70
2022-09-30T10:08:27.061Z,10.30
2022-09-30T10:11:01.116Z,9.98
2022-09-30T10:13:31.961Z,9.80
2022-09-30T10:16:08.302Z,10.00
2022-09-30T10:18:38.578Z,9.35
2022-09-30T10:21:21.268Z,10.48
2022-09-30T10:23:48.612Z,9.13
2022-09-30T10:26:15.517Z,8.77
2022-09-30T10:28:50.152Z,8.63
2022-09-30T10:31:24.775Z,9.00
2022-09-30T10:34:01.558Z,7.80
2022-09-30T10:36:34.665Z,8.65
2022-09-30T10:39:07.111Z,7.80
2022-09-30T10:41:37.205Z,6.45
2022-09-30T10:44:14.502Z,6.38
2022-09-30T10:46:44.794Z,6.05
2022-09-30T10:49:27.353Z,6.18
2022-09-30T10:51:56.540Z,6.47
2022-09-30T10:54:56.667Z,6.35
2022-09-30T10:57:35.190Z,6.95
2022-09-30T11:00:14.783Z,6.47
2022-09-30T11:02:53.276Z,5.93
2022-09-30T11:05:24.533Z,6.32
2022-09-30T11:08:03.838Z,6.45
2022-09-30T11:10:30.558Z,5.35
2022-09-30T11:13:02.316Z,5.00
2022-09-30T11:15:30.762Z,4.68
2022-09-30T11:18:00.346Z,5.47
2022-09-30T11:20:39.156Z,5.03
2022-09-30T11:23:19.205Z,4.93
2022-09-30T11:26:02.960Z,4.70
2022-09-30T11:28:39.930Z,4.78
2022-09-30T11:31:25.415Z,4.45
2022-09-30T11:34:00.660Z,4.68
2022-09-30T11:36:30.691Z,4.57
2022-09-30T11:39:11.723Z,4.43
2022-09-30T11:41:42.253Z,4.18
2022-09-30T11:44:35.642Z,4.22
2022-09-30T11:47:22.008Z,3.95
2022-09-30T11:50:16.877Z,4.07
2022-09-30T11:53:04.038Z,3.53
2022-09-30T11:56:16.140Z,3.92
2022-09-30T11:58:50.500Z,4.15
2022-09-30T12:01:38.541Z,3.45
2022-09-30T12:04:22.604Z,3.70
2022-09-30T12:07:21.823Z,3.13
2022-09-30T12:10:02.607Z,3.08
2022-09-30T12:12:32.487Z,3.17
2022-09-30T12:15:05.889Z,2.90
2022-09-30T12:17:41.864Z,3.20
2022-09-30T12:20:18.884Z,2.00
2022-09-30T12:22:47.747Z,2.05
2022-09-30T12:25:25.284Z,1.83
2022-09-30T12:28:48.270Z,1.73
2022-09-30T12:31:24.081Z,1.90
2022-09-30T12:34:03.895Z,1.80
2022-09-30T12:36:51.020Z,1.50
2022-09-30T12:39:26.647Z,1.60
2022-09-30T12:42:07.321Z,1.40
2022-09-30T12:45:05.377Z,1.30
2022-09-30T12:47:35.149Z,1.40
2022-09-30T12:50:12.907Z,1.10
2022-09-30T12:52:39.743Z,1.58
2022-09-30T12:55:19.916Z,1.15
2022-09-30T12:57:48.180Z,1.30
2022-09-30T13:00:18.014Z,1.30
2022-09-30T13:02:49.304Z,1.40
2022-09-30T13:05:30.927Z,1.13
2022-09-30T13:08:04.070Z,0.90
2022-09-30T13:10:39.981Z,1.20
2022-09-30T13:13:33.955Z,1.13
2022-09-30T13:16:06.946Z,1.38
2022-09-30T13:18:33.926Z,1.40
2022-09-30T13:21:08.512Z,1.05
2022-09-30T13:23:57.340Z,1.40
2022-09-30T13:26:34.202Z,1.40
2022-09-30T13:29:01.143Z,1.20
2022-09-30T13:31:30.232Z,1.10
2022-09-30T13:34:15.986Z,1.02
2022-09-30T13:36:51.806Z,1.20
2022-09-30T13:39:43.870Z,1.02
2022-09-30T13:42:17.012Z,1.45
2022-09-30T13:45:15.305Z,1.33
2022-09-30T13:48:02.414Z,1.23
2022-09-30T13:50:40.641Z,1.30
2022-09-30T13:53:16.055Z,0.95
2022-09-30T13:55:50.202Z,1.10
2022-09-30T13:58:42.386Z,1.30
2022-09-30T14:01:55.911Z,1.15
2022-09-30T14:04:23.407Z,1.17
2022-09-30T14:07:05.299Z,1.25
2022-09-30T14:09:38.854Z,1.40
2022-09-30T14:12:32.597Z,1.20
2022-09-30T14:15:34.702Z,1.17
2022-09-30T14:18:49.209Z,1.35
2022-09-30T14:21:22.484Z,1.30
2022-09-30T14:24:09.441Z,1.27
2022-09-30T14:26:57.525Z,1.10
2022-09-30T14:29:34.242Z,1.20
2022-09-30T14:32:02.662Z,1.00
2022-09-30T14:34:29.598Z,1.25
2022-09-30T14:36:56.359Z,1.50
2022-09-30T14:39:29.221Z,1.35
2022-09-30T14:41:59.323Z,1.20
2022-09-30T14:44:30.423Z,1.40
2022-09-30T14:47:01.648Z,1.65
2022-09-30T14:49:36.035Z,1.48
2022-09-30T14:52:04.288Z,1.67
2022-09-30T14:54:32.902Z,1.40
2022-09-30T14:57:02.295Z,1.42
2022-09-30T14:59:34.586Z,1.35
2022-09-30T15:02:05.164Z,1.20
2022-09-30T15:04:35.503Z,1.10
2022-09-30T15:07:04.256Z,1.08
2022-09-30T15:09:36.085Z,1.30
2022-09-30T15:12:11.078Z,1.77
2022-09-30T15:14:48.147Z,1.70
2022-09-30T15:17:20.524Z,1.67
2022-09-30T15:19:47.399Z,1.80
2022-09-30T15:22:14.987Z,1.58
2022-09-30T15:24:42.363Z,1.60
2022-09-30T15:27:21.101Z,1.67
2022-09-30T15:29:59.844Z,1.60
2022-09-30T15:32:33.034Z,1.52
2022-09-30T15:35:15.447Z,1.13
2022-09-30T15:37:43.513Z,1.30
2022-09-30T15:40:36.082Z,1.38
2022-09-30T15:43:06.917Z,1.70
2022-09-30T15:45:45.437Z,1.45
2022-09-30T15:48:27.290Z,0.95
2022-09-30T15:51:01.479Z,1.13
2022-09-30T15:53:32.465Z,1.02
2022-09-30T15:56:15.723Z,1.10
2022-09-30T15:58:57.717Z,1.10
2022-09-30T16:01:38.954Z,1.15
2022-09-30T16:04:17.217Z,1.27
2022-09-30T16:06:56.890Z,1.45
2022-09-30T16:09:33.380Z,1.52
2022-09-30T16:12:12.032Z,5.30
2022-09-30T16:14:45.012Z,1.63
2022-09-30T16:17:32.521Z,1.52
2022-09-30T16:20:24.135Z,1.27
2022-09-30T16:22:55.506Z,1.40
2022-09-30T16:25:22.224Z,1.40
2022-09-30T16:27:59.478Z,1.33
2022-09-30T16:30:27.218Z,1.20
2022-09-30T16:32:58.480Z,1.20
2022-09-30T16:35:28.178Z,1.17
2022-09-30T16:38:02.593Z,1.13
2022-09-30T16:40:35.356Z,1.10
2022-09-30T16:43:07.540Z,1.02
2022-09-30T16:45:35.352Z,1.17
2022-09-30T16:48:05.887Z,1.50
2022-09-30T16:50:50.540Z,1.40
2022-09-30T16:53:35.839Z,1.27
2022-09-30T17:08:03.992Z,1.50
2022-09-30T17:10:35.108Z,1.45
2022-09-30T17:13:36.725Z,1.58
2022-09-30T17:16:15.566Z,1.88
2022-09-30T17:18:45.495Z,1.70
2022-09-30T17:23:20.109Z,1.67
2022-09-30T17:25:55.621Z,1.73
2022-09-30T17:28:30.585Z,1.75
2022-09-30T17:34:41.332Z,2.00
2022-09-30T17:39:39.677Z,1.52
2022-09-30T17:42:25.873Z,1.85
2022-09-30T17:44:55.054Z,2.30
2022-09-30T17:47:22.435Z,1.70
2022-09-30T17:49:49.250Z,1.63
2022-09-30T17:52:17.969Z,1.65
2022-09-30T17:54:48.617Z,1.58
2022-09-30T17:57:18.608Z,1.70
2022-09-30T17:59:46.623Z,1.80
2022-09-30T18:02:17.470Z,1.60
2022-09-30T18:04:44.820Z,1.50
2022-09-30T18:07:13.622Z,1.80
2022-09-30T18:09:42.778Z,1.60
2022-09-30T18:12:09.433Z,1.73
2022-09-30T18:14:36.593Z,1.48
2022-09-30T18:17:05.353Z,1.67
2022-09-30T18:19:32.583Z,1.90
2022-09-30T18:21:59.353Z,1.80
2022-09-30T18:24:44.666Z,2.35
2022-09-30T18:27:11.765Z,2.00
2022-09-30T18:29:38.695Z,2.20
2022-09-30T18:32:05.932Z,2.13
2022-09-30T18:34:32.913Z,2.22
2022-09-30T18:37:04.064Z,1.95
2022-09-30T18:39:31.548Z,2.13
2022-09-30T18:41:58.267Z,2.55
2022-09-30T18:44:25.765Z,1.70
2022-09-30T18:46:55.424Z,2.30
2022-09-30T18:49:22.298Z,2.30
2022-09-30T18:51:49.173Z,1.90
2022-09-30T18:54:16.277Z,2.30
2022-09-30T18:56:44.298Z,2.40
2022-09-30T18:59:20.617Z,2.20
2022-09-30T19:01:50.144Z,2.40
2022-09-30T19:04:19.207Z,2.30
2022-09-30T19:06:47.590Z,2.20
2022-09-30T19:09:16.430Z,2.20
2022-09-30T19:11:44.784Z,2.20
2022-09-30T19:14:13.374Z,2.40
2022-09-30T19:16:40.657Z,2.33
2022-09-30T19:19:10.700Z,2.15
2022-09-30T19:21:38.864Z,2.17
2022-09-30T19:24:07.202Z,2.10
2022-09-30T19:26:36.307Z,2.20
2022-09-30T19:29:05.323Z,2.20
2022-09-30T19:31:34.068Z,2.28
2022-09-30T19:34:02.071Z,2.20
2022-09-30T19:36:31.916Z,2.40
2022-09-30T19:39:11.339Z,2.25
2022-09-30T19:41:38.925Z,2.65
2022-09-30T19:44:05.708Z,3.60
2022-09-30T19:46:32.549Z,3.28
2022-09-30T19:48:59.338Z,2.83
2022-09-30T19:51:29.194Z,2.75
2022-09-30T19:54:05.138Z,3.10
2022-09-30T19:56:34.862Z,2.70
2022-09-30T19:59:01.801Z,2.80
2022-09-30T20:01:34.237Z,2.45
2022-09-30T20:04:04.603Z,3.08
2022-09-30T20:06:32.716Z,2.88
2022-09-30T20:09:01.957Z,3.03
2022-09-30T20:11:33.405Z,3.03
2022-09-30T20:14:20.307Z,3.10
2022-09-30T20:16:50.029Z,3.70
2022-09-30T20:19:17.949Z,3.25
2022-09-30T20:21:45.864Z,3.20
2022-09-30T20:24:15.583Z,3.30
2022-09-30T20:26:44.216Z,3.38
2022-09-30T20:29:12.949Z,3.53
2022-09-30T20:31:43.653Z,3.65
2022-09-30T20:34:15.056Z,3.10
2022-09-30T20:36:42.667Z,3.20
2022-09-30T20:39:09.746Z,3.60
2022-09-30T20:41:38.508Z,3.97
2022-09-30T20:44:07.478Z,3.15
2022-09-30T20:46:34.677Z,3.83
2022-09-30T20:49:02.608Z,3.70
2022-09-30T20:51:31.128Z,3.38
2022-09-30T20:54:05.649Z,3.72
2022-09-30T20:57:02.868Z,3.00
2022-09-30T20:59:24.457Z,3.67
2022-09-30T21:01:51.984Z,3.10
2022-09-30T21:04:21.421Z,3.40
2022-09-30T21:06:48.266Z,3.40
2022-09-30T21:09:15.619Z,4.57
2022-09-30T21:11:42.530Z,2.95
2022-09-30T21:14:09.490Z,3.25
2022-09-30T21:16:38.929Z,3.10
2022-09-30T21:19:05.971Z,3.53
2022-09-30T21:21:33.182Z,3.10
2022-09-30T21:24:00.351Z,3.22
2022-09-30T21:26:27.925Z,3.28
2022-09-30T21:28:54.708Z,3.33
2022-09-30T21:31:27.304Z,3.33
2022-09-30T21:33:56.749Z,3.03
2022-09-30T21:36:24.398Z,3.55
2022-09-30T21:38:56.328Z,2.72
2022-09-30T21:41:23.130Z,2.92
2022-09-30T21:43:49.898Z,3.17
2022-09-30T21:46:18.517Z,3.25
2022-09-30T21:48:47.510Z,3.13
2022-09-30T21:51:17.393Z,3.28
2022-09-30T21:53:44.138Z,3.25
2022-09-30T21:56:12.221Z,3.55
2022-09-30T21:58:39.226Z,3.42
2022-09-30T22:01:09.563Z,3.30
2022-09-30T22:03:39.458Z,2.90
2022-09-30T22:06:08.012Z,3.03
2022-09-30T22:08:40.129Z,3.10
2022-09-30T22:11:09.347Z,3.10
2022-09-30T22:13:36.427Z,3.80
2022-09-30T22:16:09.463Z,3.58
2022-09-30T22:18:36.915Z,3.13
2022-09-30T22:21:11.942Z,3.45
2022-09-30T22:23:41.676Z,3.92
2022-09-30T22:26:29.431Z,3.45
2022-09-30T22:29:00.891Z,3.97
2022-09-30T22:31:30.430Z,3.47
2022-09-30T22:34:32.914Z,3.90
2022-09-30T22:37:38.687Z,3.20
2022-09-30T22:41:05.763Z,4.03
